Time;durP1;ratioP1;P1;durP2;ratioP2;P2;SDS_P1;SDS_P2;PMS_P1;PMS_P2;Temp;Humidity;BMP_temperature;BMP_pressure;BME280_temperature;BME280_humidity;BME280_pressure;Samples;Min_cycle;Max_cycle;Signal;HPM_P1;HPM_P2
2023/03/04 00:00:56;;;;;;;33.27;16.03;;;2.50;73.00;;;5.95;46.58;98128.91;5074085;28;20041;-50
2023/03/04 00:03:23;;;;;;;33.73;14.83;;;2.50;73.00;;;5.90;46.89;98128.41;5073777;28;20166;-49
2023/03/04 00:05:51;;;;;;;27.37;15.27;;;2.40;73.20;;;5.91;47.09;98133.59;5073621;28;20514;-46
2023/03/04 00:08:18;;;;;;;31.40;16.07;;;2.40;73.40;;;5.88;47.03;98130.34;5072797;28;20104;-46
2023/03/04 00:10:46;;;;;;;29.63;15.97;;;2.50;73.30;;;5.89;46.79;98126.72;5073607;28;20055;-49
2023/03/04 00:13:13;;;;;;;29.93;16.37;;;2.40;72.90;;;5.85;47.52;98127.91;5073598;28;20052;-47
2023/03/04 00:15:41;;;;;;;34.07;16.33;;;2.40;73.00;;;5.86;47.12;98126.97;5073565;28;20151;-49
2023/03/04 00:18:09;;;;;;;30.60;16.60;;;2.50;73.30;;;5.81;46.73;98131.75;5073702;28;20048;-49
2023/03/04 00:20:36;;;;;;;23.93;14.67;;;2.40;72.40;;;5.70;47.50;98128.16;5073388;28;20048;-49
2023/03/04 00:23:04;;;;;;;29.37;16.47;;;2.30;73.20;;;5.63;47.37;98126.94;5073273;28;20051;-45
2023/03/04 00:25:32;;;;;;;28.60;15.77;;;2.20;73.50;;;5.52;47.17;98130.44;5073148;28;20507;-48
2023/03/04 00:28:00;;;;;;;27.67;14.57;;;2.10;74.00;;;5.49;47.27;98133.28;5074209;28;20040;-45
2023/03/04 00:30:27;;;;;;;29.17;14.77;;;2.10;74.20;;;5.43;47.56;98127.63;5054882;28;20396;-42
2023/03/04 00:32:55;;;;;;;29.90;16.47;;;2.10;74.20;;;5.42;47.51;98132.06;5073155;28;20045;-42
2023/03/04 00:35:23;;;;;;;34.53;16.20;;;2.00;74.10;;;5.45;47.51;98133.66;5072868;28;20055;-43
2023/03/04 00:37:53;;;;;;;27.53;14.80;;;2.10;74.00;;;5.46;47.16;98136.16;5073378;28;20063;-42
2023/03/04 00:40:21;;;;;;;26.67;13.93;;;2.10;73.50;;;5.44;47.03;98138.06;5055049;28;20512;-42
2023/03/04 00:42:48;;;;;;;26.07;14.57;;;2.00;73.50;;;5.38;47.38;98135.91;5054698;28;20071;-43
2023/03/04 00:45:16;;;;;;;26.93;15.03;;;2.00;74.20;;;5.27;48.22;98142.00;5055176;28;20049;-49
2023/03/04 00:47:43;;;;;;;24.03;14.87;;;1.90;74.60;;;5.29;47.95;98141.88;5046730;28;20052;-47
2023/03/04 00:50:11;;;;;;;25.53;14.53;;;1.90;74.50;;;5.23;47.72;98139.69;5063327;28;20415;-48
2023/03/04 00:52:38;;;;;;;27.53;13.63;;;1.90;75.00;;;5.24;48.07;98139.59;5073008;28;20040;-46
2023/03/04 00:55:07;;;;;;;24.37;15.17;;;1.90;74.90;;;5.13;48.28;98137.75;5053706;28;20052;-49
2023/03/04 00:57:35;;;;;;;28.73;14.93;;;1.70;75.20;;;5.14;48.13;98135.97;5054294;28;20508;-48
2023/03/04 01:00:04;;;;;;;27.73;14.37;;;1.70;75.70;;;5.09;48.08;98128.38;5063119;28;20048;-45
2023/03/04 01:02:31;;;;;;;24.13;13.83;;;1.60;76.10;;;5.10;48.28;98131.88;5072761;28;20123;-45
2023/03/04 01:04:59;;;;;;;25.80;13.90;;;1.60;75.90;;;5.03;48.33;98135.94;5062779;28;20045;-48
2023/03/04 01:07:26;;;;;;;24.50;13.87;;;1.60;76.40;;;5.05;47.86;98126.09;5054620;28;20044;-46
2023/03/04 01:09:54;;;;;;;27.63;13.70;;;1.60;76.10;;;5.05;48.48;98126.09;5054504;28;20036;-52
2023/03/04 01:12:21;;;;;;;27.60;14.30;;;1.60;76.20;;;4.96;48.84;98124.13;5072502;28;20048;-45
2023/03/04 01:14:49;;;;;;;20.83;12.93;;;1.50;76.70;;;4.96;48.29;98119.69;5054297;28;20106;-50
2023/03/04 01:17:16;;;;;;;23.67;12.40;;;1.50;76.80;;;4.87;48.10;98126.50;5062145;28;20506;-47
2023/03/04 01:19:44;;;;;;;23.77;12.93;;;1.40;77.00;;;4.78;48.18;98132.47;5053691;28;20499;-48
2023/03/04 01:22:13;;;;;;;22.63;12.80;;;1.30;77.50;;;4.81;48.95;98128.75;5062411;28;20056;-48
2023/03/04 01:24:42;;;;;;;22.83;13.50;;;1.40;78.10;;;4.79;49.08;98122.75;5054046;28;20052;-45
2023/03/04 01:27:10;;;;;;;23.67;14.23;;;1.30;78.20;;;4.78;48.82;98132.47;5054057;28;20416;-47
2023/03/04 01:29:37;;;;;;;21.13;11.83;;;1.30;78.40;;;4.78;48.83;98118.44;5062001;28;20051;-49
2023/03/04 01:32:05;;;;;;;27.07;12.80;;;1.30;78.30;;;4.77;49.05;98127.28;5072451;28;20040;-49
2023/03/04 01:34:33;;;;;;;28.70;12.93;;;1.40;78.30;;;4.74;48.89;98120.44;5053994;28;20045;-47
2023/03/04 01:37:00;;;;;;;22.33;12.73;;;1.30;78.50;;;4.74;48.63;98123.91;5041811;28;20045;-48
2023/03/04 01:39:28;;;;;;;26.53;13.40;;;1.30;78.60;;;4.74;48.81;98121.28;5068006;28;20044;-45
2023/03/04 01:41:56;;;;;;;21.10;12.27;;;1.40;78.40;;;4.70;48.84;98121.63;5053465;28;20401;-49
2023/03/04 01:44:24;;;;;;;26.17;12.70;;;1.30;78.70;;;4.67;49.47;98125.34;5072047;28;20040;-48
2023/03/04 01:46:54;;;;;;;26.07;13.13;;;1.20;78.80;;;4.64;49.18;98120.28;5071629;28;20040;-48
2023/03/04 01:49:24;;;;;;;21.37;12.07;;;1.20;78.70;;;4.58;49.47;98118.09;5037767;28;20049;-48
2023/03/04 01:51:53;;;;;;;23.60;13.00;;;1.10;79.50;;;4.48;49.57;98115.28;5037581;28;20455;-49
2023/03/04 01:54:21;;;;;;;24.93;11.67;;;1.10;80.00;;;4.22;50.27;98116.31;5050472;28;20048;-51
2023/03/04 01:56:51;;;;;;;24.20;14.00;;;0.90;80.10;;;4.32;50.02;98122.63;5053079;28;20060;-45
2023/03/04 01:59:22;;;;;;;23.80;13.77;;;0.90;81.00;;;4.25;50.20;98118.75;5062504;28;20396;-46
2023/03/04 02:01:57;;;;;;;21.40;12.73;;;0.80;81.20;;;4.18;50.24;98118.34;5053606;28;20097;-49
2023/03/04 02:04:30;;;;;;;23.53;12.40;;;0.80;82.20;;;4.21;50.34;98106.75;5053184;28;20060;-48
2023/03/04 02:07:00;;;;;;;27.27;12.63;;;0.80;81.70;;;4.14;50.25;98114.22;5052671;28;20040;-44
2023/03/04 02:09:29;;;;;;;24.37;12.33;;;0.80;82.20;;;4.16;50.41;98114.13;5054236;28;20512;-42
2023/03/04 02:11:57;;;;;;;20.90;12.07;;;0.70;82.80;;;3.99;50.47;98108.25;5036681;28;20112;-42
2023/03/04 02:14:25;;;;;;;22.37;11.67;;;0.60;82.90;;;3.94;50.84;98105.94;5053718;28;20048;-44
2023/03/04 02:16:52;;;;;;;20.43;13.17;;;0.50;84.70;;;3.93;50.51;98100.78;5053303;28;20519;-44
2023/03/04 02:19:52;;;;;;;24.97;12.83;;;0.50;85.20;;;3.90;50.26;98093.94;5053501;28;20059;-42
2023/03/04 02:22:20;;;;;;;22.50;11.37;;;0.50;85.40;;;3.90;50.84;98101.84;5032487;28;20052;-42
2023/03/04 02:25:05;;;;;;;25.57;12.33;;;0.50;86.00;;;3.68;51.60;98091.13;5071029;28;20040;-42
2023/03/04 02:27:33;;;;;;;23.03;12.10;;;0.30;86.40;;;3.63;51.54;98098.53;5045670;28;20045;-43
2023/03/04 02:30:00;;;;;;;22.73;12.03;;;0.30;87.60;;;3.54;52.12;98090.28;5052819;28;20053;-42
2023/03/04 02:32:28;;;;;;;31.07;13.70;;;0.30;88.60;;;3.69;51.27;98095.47;5052964;28;20412;-42
2023/03/04 02:34:56;;;;;;;23.33;10.87;;;0.30;90.20;;;3.59;52.06;98086.50;5052509;28;20504;-42
2023/03/04 02:37:23;;;;;;;23.30;12.37;;;0.30;89.10;;;3.70;51.44;98094.50;5053497;28;20060;-47
2023/03/04 02:39:53;;;;;;;21.37;13.33;;;0.40;89.30;;;3.64;51.63;98105.47;5052351;28;20057;-43
2023/03/04 02:42:21;;;;;;;23.83;12.10;;;0.40;89.70;;;3.68;51.51;98105.16;5071297;28;20055;-42
2023/03/04 02:44:49;;;;;;;25.23;12.93;;;0.40;89.20;;;3.67;51.76;98106.09;5052978;28;20050;-42
2023/03/04 02:47:19;;;;;;;25.33;12.57;;;0.40;89.30;;;3.70;51.30;98108.53;5052513;28;20045;-42
2023/03/04 02:49:48;;;;;;;23.83;12.37;;;0.30;89.00;;;3.63;51.94;98102.00;5052098;28;20044;-42
2023/03/04 02:52:22;;;;;;;29.90;13.63;;;0.30;89.10;;;3.67;51.25;98100.00;5061579;28;20059;-43
2023/03/04 02:54:50;;;;;;;23.43;12.93;;;0.30;90.00;;;3.56;51.70;98098.09;5052713;28;20052;-44
2023/03/04 02:57:19;;;;;;;26.23;12.90;;;0.20;90.70;;;3.58;51.82;98096.19;5060962;28;20060;-42
2023/03/04 02:59:51;;;;;;;27.90;13.13;;;0.20;90.90;;;3.61;51.80;98101.25;5060263;28;20610;-42
2023/03/04 03:02:22;;;;;;;24.70;13.77;;;0.20;91.10;;;3.60;51.95;98096.94;5061816;28;20049;-48
2023/03/04 03:04:51;;;;;;;22.27;13.10;;;0.20;91.50;;;3.57;51.85;98101.56;5052705;28;20520;-48
2023/03/04 03:07:20;;;;;;;27.20;13.47;;;0.20;91.60;;;3.61;51.95;98101.25;5053014;28;20496;-50
2023/03/04 03:09:48;;;;;;;25.20;11.97;;;0.30;91.50;;;3.56;51.98;98106.00;5060840;28;20049;-49
2023/03/04 03:12:17;;;;;;;23.17;13.27;;;0.30;91.30;;;3.45;52.38;98108.50;5052372;28;20049;-50
2023/03/04 03:14:45;;;;;;;28.17;13.30;;;0.20;91.90;;;3.45;52.31;98100.63;5036108;28;20056;-46
2023/03/04 03:17:16;;;;;;;26.43;13.07;;;0.20;92.60;;;3.43;52.61;98106.00;5052318;28;20050;-50
2023/03/04 03:19:43;;;;;;;31.47;13.73;;;0.10;92.80;;;3.48;52.13;98101.25;5052302;28;20421;-51
2023/03/04 03:22:11;;;;;;;22.40;11.87;;;0.20;93.00;;;3.37;52.32;98101.16;5060776;28;20048;-49
2023/03/04 03:24:40;;;;;;;27.13;12.20;;;0.00;94.00;;;3.38;52.10;98102.00;5052453;28;20071;-50
2023/03/04 03:27:07;;;;;;;23.73;13.30;;;0.00;93.60;;;3.37;52.42;98098.50;5044786;28;20063;-42
2023/03/04 03:29:35;;;;;;;28.50;13.13;;;0.00;94.20;;;3.32;52.49;98100.63;5052347;28;20441;-42
2023/03/04 03:32:06;;;;;;;24.70;14.00;;;-0.10;95.20;;;3.40;52.11;98100.13;5052769;28;20055;-44
2023/03/04 03:34:34;;;;;;;25.40;12.97;;;0.00;95.70;;;3.27;52.61;98089.56;5053152;28;20045;-42
2023/03/04 03:37:02;;;;;;;27.07;12.47;;;-0.10;95.60;;;3.35;52.32;98090.75;5051874;28;20273;-42
2023/03/04 03:39:29;;;;;;;25.27;12.83;;;0.00;97.10;;;3.27;52.51;98092.19;5052484;28;20416;-42
2023/03/04 03:41:57;;;;;;;30.53;14.60;;;-0.10;97.20;;;3.20;53.00;98097.06;5072658;28;20037;-43
2023/03/04 03:44:24;;;;;;;27.10;14.57;;;-0.20;97.20;;;3.17;52.85;98099.03;5074386;28;20040;-43
2023/03/04 03:46:52;;;;;;;28.90;14.30;;;-0.20;98.90;;;3.14;53.21;98093.03;5064222;28;20040;-42
2023/03/04 03:49:20;;;;;;;23.80;12.90;;;-0.20;99.90;;;3.13;53.72;98101.03;5075390;28;20032;-45
2023/03/04 03:51:48;;;;;;;27.80;13.73;;;-0.20;99.90;;;3.10;52.92;98095.97;5063960;28;20048;-48
2023/03/04 03:54:15;;;;;;;29.37;15.73;;;-0.20;99.90;;;3.17;52.89;98097.25;5073755;28;20051;-49
2023/03/04 03:56:43;;;;;;;32.80;16.10;;;-0.20;99.90;;;3.13;52.64;98106.28;5074133;28;20040;-43
2023/03/04 03:59:10;;;;;;;31.37;13.53;;;-0.30;99.90;;;3.19;52.50;98097.16;5073112;28;20045;-41
2023/03/04 04:01:38;;;;;;;27.30;13.47;;;-0.20;99.90;;;3.18;52.92;98101.56;5073847;28;20032;-42
2023/03/04 04:04:06;;;;;;;34.63;15.17;;;-0.20;99.90;;;3.15;52.70;98094.72;5073862;28;20045;-44
2023/03/04 04:06:33;;;;;;;24.97;13.53;;;-0.30;99.90;;;3.16;52.64;98100.84;5073949;28;20045;-42
2023/03/04 04:09:01;;;;;;;32.10;14.43;;;-0.30;99.90;;;3.22;52.57;98099.56;5073778;28;20048;-42
2023/03/04 04:11:28;;;;;;;30.83;14.10;;;-0.30;99.90;;;3.22;52.57;98100.41;5074034;28;20348;-45
2023/03/04 04:13:56;;;;;;;29.77;15.80;;;-0.20;99.90;;;3.20;52.42;98101.44;5073477;28;20480;-45
2023/03/04 04:16:23;;;;;;;27.53;13.13;;;-0.30;99.90;;;3.21;52.30;98101.34;5073570;28;20070;-43
2023/03/04 04:18:51;;;;;;;27.87;13.53;;;-0.30;99.90;;;3.15;52.18;98109.66;5073823;28;20036;-42
2023/03/04 04:21:19;;;;;;;31.47;14.63;;;-0.40;99.90;;;3.07;52.66;98104.91;5073485;28;20043;-42
2023/03/04 04:23:46;;;;;;;32.40;13.93;;;-0.50;99.90;;;3.04;52.72;98105.09;5063762;28;20049;-42
2023/03/04 04:26:14;;;;;;;25.43;14.87;;;-0.50;99.90;;;3.08;52.47;98108.38;5073390;28;20055;-42
2023/03/04 04:28:41;;;;;;;27.83;13.60;;;-0.40;99.90;;;3.09;52.59;98104.81;5073629;28;20408;-42
2023/03/04 04:31:09;;;;;;;29.07;15.00;;;-0.40;99.90;;;3.12;52.48;98109.84;5073366;28;20047;-42
2023/03/04 04:33:37;;;;;;;28.40;15.40;;;-0.40;99.90;;;3.11;52.56;98109.03;5073938;28;20492;-47
2023/03/04 04:36:05;;;;;;;32.00;14.90;;;-0.40;99.90;;;3.11;52.18;98111.66;5072748;28;20049;-49
2023/03/04 04:38:32;;;;;;;30.93;14.17;;;-0.40;99.90;;;3.13;52.27;98114.19;5073762;28;20063;-49
2023/03/04 04:41:00;;;;;;;33.83;14.93;;;-0.50;99.90;;;3.10;52.03;98107.34;5073218;28;20048;-48
2023/03/04 04:43:27;;;;;;;35.00;14.40;;;-0.50;99.90;;;3.11;52.29;98110.81;5073606;28;20040;-51
2023/03/04 04:45:57;;;;;;;32.33;16.27;;;-0.50;99.90;;;3.15;51.61;98113.13;5072702;28;20044;-50
2023/03/04 04:48:25;;;;;;;31.97;14.17;;;-0.40;99.90;;;3.16;52.06;98108.72;5055911;28;20045;-45
2023/03/04 04:50:55;;;;;;;29.13;14.63;;;-0.30;99.90;;;3.19;52.11;98103.25;5072895;28;20132;-48
2023/03/04 04:53:22;;;;;;;30.77;14.80;;;-0.20;99.90;;;3.21;52.02;98111.88;5055126;28;20047;-48
2023/03/04 04:55:50;;;;;;;36.47;16.20;;;-0.20;99.90;;;3.26;51.96;98107.16;5070195;28;20044;-48
2023/03/04 04:58:17;;;;;;;33.87;15.07;;;-0.10;99.90;;;3.25;52.06;98110.72;5072893;28;20496;-47
2023/03/04 05:00:45;;;;;;;33.47;14.60;;;-0.20;99.90;;;3.26;51.72;98115.06;5038678;28;20048;-51
2023/03/04 05:03:12;;;;;;;30.93;14.50;;;-0.20;99.90;;;3.26;51.69;98115.06;5073089;28;20044;-46
2023/03/04 05:05:41;;;;;;;34.63;16.50;;;-0.20;99.90;;;3.14;51.72;98107.97;5072888;28;20041;-43
2023/03/04 05:08:08;;;;;;;32.43;14.13;;;-0.40;99.90;;;3.09;52.10;98115.34;5072933;28;20044;-43
2023/03/04 05:10:36;;;;;;;26.53;15.27;;;-0.50;99.90;;;3.01;52.25;98120.28;5073622;28;20047;-46
2023/03/04 05:13:03;;;;;;;32.70;14.70;;;-0.50;99.90;;;2.91;52.43;98120.06;5072754;28;20041;-49
2023/03/04 05:15:31;;;;;;;35.13;16.97;;;-0.60;99.90;;;2.91;52.38;98117.41;5072759;28;20051;-41
2023/03/04 05:17:58;;;;;;;33.57;15.13;;;-0.60;99.90;;;2.88;52.25;98120.25;5062765;28;20060;-42
2023/03/04 05:20:26;;;;;;;32.57;15.27;;;-0.70;99.90;;;2.88;52.58;98128.13;5072341;28;20041;-42
2023/03/04 05:22:54;;;;;;;30.60;14.77;;;-0.70;99.90;;;2.88;52.59;98126.34;5072806;28;20033;-44
2023/03/04 05:25:21;;;;;;;32.47;15.53;;;-0.70;99.90;;;2.88;52.69;98122.88;5072139;28;20044;-42
2023/03/04 05:27:49;;;;;;;33.03;15.20;;;-0.70;99.90;;;2.89;52.20;98130.66;5072936;28;20036;-48
2023/03/04 05:30:17;;;;;;;37.80;15.00;;;-0.60;99.90;;;2.82;52.71;98132.00;5072656;28;20037;-51
2023/03/04 05:32:44;;;;;;;32.70;15.87;;;-0.70;99.90;;;2.77;52.80;98131.44;5072442;28;20037;-47
2023/03/04 05:35:12;;;;;;;32.73;16.03;;;-0.80;99.90;;;2.76;52.95;98125.34;5072104;28;20044;-45
2023/03/04 05:37:39;;;;;;;28.93;14.60;;;-0.80;99.90;;;2.81;52.20;98127.69;5072008;28;20036;-47
2023/03/04 05:40:08;;;;;;;28.67;13.93;;;-0.80;99.90;;;2.81;52.43;98127.69;5072220;28;20052;-47
2023/03/04 05:42:36;;;;;;;34.40;16.30;;;-0.70;99.90;;;2.74;52.85;98129.03;5071551;28;20044;-48
2023/03/04 05:45:05;;;;;;;35.93;16.70;;;-0.80;99.90;;;2.76;52.57;98130.63;5071745;28;20048;-47
2023/03/04 05:47:33;;;;;;;28.80;14.50;;;-0.80;99.90;;;2.75;52.86;98128.94;5071912;28;20037;-47
2023/03/04 05:50:00;;;;;;;37.90;16.97;;;-0.80;99.90;;;2.74;52.75;98137.75;5072027;28;20056;-50
2023/03/04 05:52:28;;;;;;;31.63;16.50;;;-0.80;99.90;;;2.73;52.91;98140.47;5053805;28;20048;-48
2023/03/04 05:54:56;;;;;;;32.33;14.80;;;-0.90;99.90;;;2.67;52.86;98138.25;5071977;28;20051;-48
2023/03/04 05:57:23;;;;;;;34.40;15.93;;;-0.90;99.90;;;2.67;53.18;98135.63;5071584;28;20040;-49
2023/03/04 05:59:51;;;;;;;33.80;14.80;;;-0.90;99.90;;;2.71;52.72;98140.56;5061604;28;20048;-47
2023/03/04 06:02:18;;;;;;;34.07;18.73;;;-0.90;99.90;;;2.72;52.59;98139.66;5071623;28;20416;-46
2023/03/04 06:04:46;;;;;;;37.10;15.27;;;-0.80;99.90;;;2.75;52.91;98138.59;5070998;28;20049;-46
2023/03/04 06:07:14;;;;;;;38.50;17.20;;;-0.70;99.90;;;2.76;52.91;98145.56;5071057;28;20044;-47
2023/03/04 06:09:43;;;;;;;36.87;17.77;;;-0.80;99.90;;;2.76;52.34;98149.03;5054071;28;20036;-47
2023/03/04 06:12:11;;;;;;;36.03;15.87;;;-0.80;99.90;;;2.76;52.55;98146.38;5071389;28;20051;-45
2023/03/04 06:14:39;;;;;;;32.63;15.67;;;-0.80;99.90;;;2.74;52.47;98148.28;5071565;28;20427;-48
2023/03/04 06:17:07;;;;;;;37.27;18.30;;;-0.80;99.90;;;2.73;52.94;98157.13;5071150;28;20059;-49
2023/03/04 06:19:36;;;;;;;40.10;17.83;;;-0.80;99.90;;;2.74;52.42;98164.06;5071683;28;20040;-46
2023/03/04 06:22:04;;;;;;;37.83;15.43;;;-0.70;99.90;;;2.74;52.78;98164.06;5071006;28;20044;-45
2023/03/04 06:24:32;;;;;;;30.57;15.53;;;-0.80;99.90;;;2.75;52.94;98157.00;5071578;28;20064;-51
2023/03/04 06:26:59;;;;;;;34.87;15.30;;;-0.80;99.90;;;2.70;52.92;98167.84;5071047;28;20036;-45
2023/03/04 06:29:27;;;;;;;33.80;15.50;;;-0.90;99.90;;;2.54;53.90;98157.47;5071494;28;20037;-47
2023/03/04 06:31:54;;;;;;;35.50;16.27;;;-1.00;99.90;;;2.53;53.95;98166.28;5071729;28;20040;-46
2023/03/04 06:34:22;;;;;;;42.73;17.87;;;-1.00;99.90;;;2.56;54.24;98168.72;5071645;28;20040;-49
2023/03/04 06:36:50;;;;;;;39.13;15.90;;;-0.90;99.90;;;2.69;53.58;98173.19;5071002;28;20044;-45
2023/03/04 06:39:17;;;;;;;34.90;16.17;;;-0.90;99.90;;;2.71;53.76;98180.03;5062995;28;20045;-46
2023/03/04 06:41:45;;;;;;;36.27;16.20;;;-0.80;99.90;;;2.71;53.72;98182.66;5071050;28;20048;-45
2023/03/04 06:44:13;;;;;;;35.17;17.90;;;-0.80;99.90;;;2.69;53.50;98178.44;5070787;28;20051;-47
2023/03/04 06:46:41;;;;;;;42.17;18.90;;;-0.90;99.90;;;2.71;53.64;98180.03;5070855;28;20040;-44
2023/03/04 06:49:09;;;;;;;37.97;16.73;;;-0.80;99.90;;;2.80;53.73;98175.97;5036949;28;20051;-46
2023/03/04 06:51:36;;;;;;;34.63;15.20;;;-0.70;99.90;;;2.84;53.76;98189.75;5071143;28;20040;-46
2023/03/04 06:54:04;;;;;;;36.27;17.13;;;-0.70;99.90;;;2.91;53.74;98188.44;5071002;28;20063;-48
2023/03/04 06:56:32;;;;;;;37.10;16.37;;;-0.60;99.90;;;2.89;53.64;98185.03;5070873;28;20052;-46
2023/03/04 06:59:00;;;;;;;36.43;16.63;;;-0.70;99.90;;;2.92;53.50;98185.69;5070637;28;20488;-47
2023/03/04 07:01:28;;;;;;;43.60;17.20;;;-0.60;99.90;;;3.01;53.45;98193.94;5070737;28;20040;-45
2023/03/04 07:03:56;;;;;;;34.53;17.60;;;-0.50;99.90;;;2.99;53.83;98195.81;5071155;28;20045;-47
2023/03/04 07:06:27;;;;;;;35.20;18.37;;;-0.50;99.90;;;2.94;53.89;98190.84;5052786;28;20056;-45
2023/03/04 07:08:55;;;;;;;38.87;16.90;;;-0.60;99.90;;;2.98;53.88;98192.31;5053303;28;20037;-50
2023/03/04 07:11:23;;;;;;;36.07;17.13;;;-0.50;99.90;;;3.01;54.04;98196.56;5070911;28;20040;-47
2023/03/04 07:13:52;;;;;;;39.87;16.63;;;-0.50;99.90;;;3.10;53.58;98196.81;5071181;28;20041;-49
2023/03/04 07:16:22;;;;;;;40.43;19.13;;;-0.40;99.90;;;3.11;53.95;98201.09;5063900;28;20523;-49
2023/03/04 07:18:50;;;;;;;39.20;19.23;;;-0.40;99.90;;;3.21;53.85;98203.13;5074973;28;20415;-49
2023/03/04 07:21:18;;;;;;;35.47;18.83;;;-0.30;99.90;;;3.32;53.94;98201.47;5074235;28;20495;-45
2023/03/04 07:23:45;;;;;;;35.93;17.57;;;-0.20;99.90;;;3.39;54.27;98206.31;5074790;28;20051;-45
2023/03/04 07:26:13;;;;;;;35.83;16.70;;;-0.10;99.90;;;3.37;54.32;98209.06;5074299;28;20060;-44
2023/03/04 07:28:41;;;;;;;32.17;15.97;;;-0.20;99.90;;;3.51;54.01;98203.72;5074691;28;20048;-45
2023/03/04 07:31:17;;;;;;;29.50;15.00;;;0.00;99.90;;;3.63;54.07;98209.13;5074445;28;20498;-45
2023/03/04 07:33:45;;;;;;;31.87;16.57;;;0.10;99.90;;;3.67;53.83;98211.44;5074560;28;20044;-50
2023/03/04 07:36:15;;;;;;;36.03;16.87;;;0.10;99.90;;;3.74;53.62;98217.09;5073963;28;20045;-49
2023/03/04 07:38:45;;;;;;;33.83;15.00;;;0.20;99.90;;;3.71;53.82;98220.81;5075049;28;20047;-45
2023/03/04 07:41:13;;;;;;;34.23;17.53;;;0.10;99.90;;;3.74;53.82;98220.59;5056292;28;20040;-45
2023/03/04 07:43:41;;;;;;;33.20;18.10;;;0.20;99.90;;;3.82;53.84;98228.00;5056603;28;20048;-46
2023/03/04 07:46:09;;;;;;;33.10;14.47;;;0.30;99.90;;;3.93;53.91;98221.97;5056311;28;20048;-46
2023/03/04 07:48:37;;;;;;;34.57;16.70;;;0.40;99.90;;;4.01;53.96;98232.81;5073846;28;20048;-49
2023/03/04 07:51:08;;;;;;;38.53;18.30;;;0.50;99.90;;;3.98;53.27;98227.78;5055492;28;20052;-45
2023/03/04 07:53:37;;;;;;;37.90;17.03;;;0.40;99.90;;;4.09;53.51;98237.56;5074253;28;20040;-45
2023/03/04 07:56:07;;;;;;;43.77;19.30;;;0.50;99.90;;;4.01;53.30;98231.97;5069761;28;20044;-46
2023/03/04 07:58:35;;;;;;;37.33;18.30;;;0.40;99.90;;;3.98;53.29;98237.47;5074302;28;20048;-45
2023/03/04 08:01:13;;;;;;;38.80;19.63;;;0.30;99.90;;;4.02;53.56;98237.16;5074090;28;20055;-48
2023/03/04 08:03:41;;;;;;;31.50;16.43;;;0.40;99.90;;;3.98;53.77;98240.13;5074388;28;20223;-45
2023/03/04 08:06:12;;;;;;;28.23;16.03;;;0.30;99.90;;;3.96;53.47;98236.75;5056182;28;20044;-45
2023/03/04 08:08:39;;;;;;;32.47;16.93;;;0.30;99.90;;;3.96;53.65;98240.22;5056140;28;20044;-45
2023/03/04 08:11:11;;;;;;;34.40;16.80;;;0.30;99.90;;;4.01;53.32;98240.72;5073747;28;20071;-45
2023/03/04 08:13:38;;;;;;;31.73;14.83;;;0.30;99.90;;;4.10;53.28;98250.63;5073913;28;20044;-45
2023/03/04 08:16:06;;;;;;;32.77;15.30;;;0.40;99.90;;;4.19;53.20;98241.25;5073358;28;20051;-47
2023/03/04 08:18:34;;;;;;;33.40;16.27;;;0.50;99.90;;;4.29;53.16;98247.56;5073916;28;20049;-45
2023/03/04 08:21:06;;;;;;;30.70;14.70;;;0.70;99.90;;;4.27;53.35;98251.28;5073324;28;20389;-48
2023/03/04 08:23:34;;;;;;;28.90;14.50;;;0.70;99.90;;;4.26;52.66;98253.03;5056802;28;20044;-45
2023/03/04 08:26:11;;;;;;;32.43;15.93;;;0.70;99.90;;;4.33;52.90;98259.59;5073165;28;20067;-51
2023/03/04 08:28:38;;;;;;;30.83;17.53;;;0.70;99.90;;;4.34;53.18;98245.47;5072340;28;20052;-51
2023/03/04 08:31:06;;;;;;;31.27;15.73;;;0.70;99.90;;;4.42;52.91;98251.97;5073345;28;20067;-47
2023/03/04 08:33:34;;;;;;;26.10;12.77;;;0.80;99.90;;;4.42;52.81;98247.56;5073581;28;20040;-47
2023/03/04 08:36:02;;;;;;;33.03;16.23;;;0.70;99.90;;;4.43;52.91;98251.03;5072965;28;20048;-48
2023/03/04 08:38:30;;;;;;;28.50;15.93;;;0.80;99.90;;;4.46;52.51;98258.72;5063481;28;20075;-48
2023/03/04 08:40:58;;;;;;;29.07;14.53;;;0.80;99.90;;;4.42;52.54;98254.59;5073357;28;20044;-47
2023/03/04 08:43:26;;;;;;;32.67;14.73;;;0.70;99.90;;;4.46;52.71;98254.31;5072730;28;20051;-46
2023/03/04 08:45:53;;;;;;;31.90;16.37;;;0.80;99.90;;;4.45;53.19;98254.41;5061264;28;20052;-45
2023/03/04 08:48:22;;;;;;;32.87;15.87;;;0.80;99.90;;;4.51;52.86;98254.81;5065286;28;20039;-46
2023/03/04 08:50:50;;;;;;;36.30;16.63;;;0.90;99.90;;;4.61;52.54;98254.16;5048139;28;20044;-46
2023/03/04 08:53:19;;;;;;;30.50;14.77;;;1.00;99.90;;;4.63;52.50;98252.25;5067394;28;20492;-45
2023/03/04 08:55:47;;;;;;;30.47;14.43;;;1.00;99.90;;;4.69;52.77;98257.97;5048740;28;20373;-46
2023/03/04 08:58:15;;;;;;;31.80;15.27;;;1.10;99.90;;;4.77;52.63;98256.53;5063976;28;20527;-45
2023/03/04 09:00:47;;;;;;;31.90;16.03;;;1.10;99.90;;;4.85;52.49;98247.16;5064334;28;20047;-47
2023/03/04 09:03:18;;;;;;;31.03;14.50;;;1.20;99.90;;;4.91;52.75;98251.13;5066054;28;20044;-45
2023/03/04 09:05:47;;;;;;;28.43;16.03;;;1.20;99.90;;;5.02;52.58;98245.06;5065587;28;20041;-45
2023/03/04 09:08:15;;;;;;;26.97;13.73;;;1.40;99.90;;;5.12;52.39;98246.94;5067190;28;20040;-45
2023/03/04 09:10:45;;;;;;;24.03;13.13;;;1.50;99.90;;;5.23;52.02;98251.41;5064791;28;20051;-46
2023/03/04 09:13:16;;;;;;;28.80;14.80;;;1.70;99.90;;;5.36;51.81;98251.38;5062029;28;20519;-48
2023/03/04 09:15:49;;;;;;;26.10;13.50;;;1.80;99.90;;;5.46;52.14;98252.34;5047094;28;20045;-49
2023/03/04 09:18:19;;;;;;;23.55;13.85;;;1.90;99.90;;;5.55;51.15;98260.56;5066017;28;20053;-47
2023/03/04 09:20:47;;;;;;;26.83;13.33;;;2.00;99.90;;;5.67;52.14;98254.34;5067708;28;20051;-45
2023/03/04 09:23:15;;;;;;;28.83;15.67;;;2.10;99.90;;;5.63;50.94;98250.28;5066495;28;20486;-46
2023/03/04 09:25:45;;;;;;;31.07;16.83;;;2.00;99.90;;;5.59;51.07;98254.09;5067333;28;20063;-45
2023/03/04 09:28:14;;;;;;;27.83;16.63;;;1.90;99.90;;;5.57;50.84;98256.00;5049143;28;20439;-50
2023/03/04 09:30:42;;;;;;;36.37;19.13;;;1.90;99.90;;;5.58;50.82;98249.75;5048635;28;20051;-48
2023/03/04 09:33:10;;;;;;;35.33;17.03;;;1.90;99.90;;;5.67;51.07;98257.00;5066404;28;20051;-46
2023/03/04 09:35:38;;;;;;;28.27;16.43;;;2.00;99.90;;;5.72;50.55;98250.41;5050680;28;20040;-49
2023/03/04 09:38:06;;;;;;;29.80;15.80;;;2.10;99.90;;;5.64;50.21;98262.50;5072747;28;20053;-47
2023/03/04 09:40:45;;;;;;;35.27;18.07;;;1.90;99.90;;;5.59;50.66;98256.75;5072721;28;20040;-47
2023/03/04 09:43:28;;;;;;;33.53;17.83;;;1.90;99.90;;;5.61;50.20;98254.81;5055247;28;20055;-47
2023/03/04 09:46:02;;;;;;;27.67;15.23;;;1.90;99.90;;;5.64;50.23;98255.44;5055920;28;20044;-47
2023/03/04 09:48:46;;;;;;;28.13;14.23;;;1.90;99.90;;;5.48;50.21;98249.59;5047604;28;20032;-45
2023/03/04 09:51:18;;;;;;;;;;;1.90;99.90;;;5.48;50.75;98255.72;5056879;28;20045;-47
2023/03/04 09:54:17;;;;;;;29.50;15.83;;;1.90;99.90;;;5.45;50.62;98255.97;5073054;28;19927;-46
2023/03/04 09:56:44;;;;;;;29.87;14.67;;;1.80;99.90;;;5.46;50.60;98252.34;5051059;28;20040;-45
2023/03/04 09:59:30;;;;;;;30.87;16.67;;;1.80;99.90;;;5.56;50.28;98254.31;5072537;28;20045;-46
2023/03/04 10:02:02;;;;;;;36.53;17.90;;;1.90;99.90;;;5.65;50.04;98251.00;5072451;28;20040;-44
2023/03/04 10:04:40;;;;;;;28.37;16.33;;;2.10;99.90;;;5.79;49.84;98244.66;5043169;28;20045;-47
2023/03/04 10:07:24;;;;;;;29.93;17.13;;;2.20;97.90;;;5.77;50.13;98255.34;5069400;28;20056;-47
2023/03/04 10:10:03;;;;;;;34.20;17.25;;;2.20;95.30;;;5.79;50.22;98255.22;5055088;28;20043;-44
2023/03/04 10:12:36;;;;;;;32.40;16.10;;;2.30;94.90;;;5.81;49.50;98259.44;5064718;28;20040;-49
2023/03/04 10:15:17;;;;;;;36.80;16.50;;;2.30;94.40;;;5.86;49.56;98248.53;5054816;28;20048;-45
2023/03/04 10:17:52;;;;;;;35.33;19.47;;;2.40;93.60;;;5.86;49.61;98252.00;5054598;28;20047;-44
2023/03/04 10:20:46;;;;;;;33.60;18.27;;;2.30;91.00;;;5.80;49.37;98247.19;5055125;28;20060;-45
2023/03/04 10:23:20;;;;;;;32.55;18.23;;;2.30;90.00;;;5.98;49.36;98250.25;5040171;28;20044;-45
2023/03/04 10:25:52;;;;;;;36.87;19.73;;;2.50;90.00;;;6.09;49.11;98250.28;5072087;28;20045;-45